Pahranagat National Wildlife Refuge, Nevada Weather observations

Data are for 10 minute period ending at time listed.
 Day   Time   Solar   Ave.   Ave.  Ave.  Vector  Max.   Baro.   Total    
  of    of     Rad.   Air    Rel.  Wind   Wind   Wind  Press.  Precip.   
Year   Day            Temp.  Hum.  Speed  Dir.   Gust                    
2015   (PST)  Kw/m2    F      %     mph   deg.    mph    mb.     in.     
-------------------------------------------------------------------------
  25    4:50   0.00   44.5    52    6.9   348    10.0   911.8    0.00 
  25    5:00   0.00   43.3    53    3.0   321     7.5   911.8    0.00 
  25    5:10   0.00   41.5    56    2.7   343     5.8   911.9    0.00 
  25    5:20   0.00   40.2    59    6.3     5     9.0   911.9    0.00 
  25    5:30   0.00   42.4    55    6.6    10     9.3   911.9    0.00 
  25    5:40   0.00   42.9    54    5.4   350     7.9   912.0    0.00 
  25    5:50   0.00   40.6    57    4.0   292     5.6   912.2    0.00 
  25    6:00   0.00   38.8    61    3.0   286     5.0   912.3    0.00 
  25    6:10   0.00   37.6    63    2.4   138     4.5   912.3    0.00 
  25    6:20   0.00   37.6    65    0.7    65     2.0   912.2    0.00 
  25    6:30   0.00   38.5    62    1.5   108     3.3   912.1    0.00 
  25    6:40   0.00   34.3    69    2.2   177     5.0   912.3    0.00 
  25    6:50   0.00   37.5    66    3.2   306     4.9   912.2    0.00 
  25    7:00   0.01   37.4    64    2.0   321     3.7   912.3    0.00 
  25    7:10   0.01   35.1    69    1.7   187     3.1   912.4    0.00 
  25    7:20   0.05   37.5    67    1.5   290     2.9   912.4    0.00 
  25    7:30   0.07   39.0    62    1.6   182     2.9   912.4    0.00 
  25    7:40   0.09   40.0    62    1.9   118     3.1   912.7    0.00 
  25    7:50   0.12   44.0    55    0.5   243     2.0   912.7    0.00 
  25    8:00   0.14   45.3    53    2.3   323     4.5   912.7    0.00 
  25    8:10   0.16   46.2    50    2.0   328     4.7   912.8    0.00 
  25    8:20   0.19   48.0    48    2.3   319     6.3   912.9    0.00 
  25    8:30   0.21   49.8    46    5.6   351     8.7   913.0    0.00 
  25    8:40   0.24   51.2    43    6.8   354    11.9   913.2    0.00 
  25    8:50   0.26   51.8    42    9.0   349    13.9   913.2    0.00 
  25    9:00   0.29   53.0    40   10.5   356    15.2   913.1    0.00 
  25    9:10   0.31   54.3    38   10.5   347    15.9   913.2    0.00 
  25    9:20   0.33   56.0    36   10.8   338    16.7   913.1    0.00 
  25    9:30   0.35   56.9    35   13.1   336    20.5   912.9    0.00 
  25    9:40   0.38   57.6    34   14.5   337    21.4   912.7    0.00 
  25    9:50   0.39   58.8    33   13.3   344    20.8   912.9    0.00 
  25   10:00   0.41   59.6    32   12.2   338    17.2   913.0    0.00 
  25   10:10   0.43   60.2    31   14.2   337    19.3   912.9    0.00 
  25   10:20   0.45   60.7    31   15.3   335    21.3   912.7    0.00 
  25   10:30   0.46   61.2    30   14.1   337    21.4   912.7    0.00 
  25   10:40   0.47   61.9    30   14.7   323    21.8   912.5    0.00 
  25   10:50   0.48   62.9    29   13.9   332    21.7   912.4    0.00 
  25   11:00   0.49   63.7    28   13.3   328    19.1   912.2    0.00 
  25   11:10   0.50   64.1    28   12.9   330    19.9   911.9    0.00 
  25   11:20   0.51   64.7    27   13.3   320    19.4   911.6    0.00 
  25   11:30   0.52   65.6    26   12.6   319    17.5   911.4    0.00 
  25   11:40   0.52   65.8    26   12.6   326    18.6   911.2    0.00 
  25   11:50   0.52   66.7    25   11.9   323    17.4   911.0    0.00 
  25   12:00   0.52   67.5    25   11.5   329    16.7   910.7    0.00 
  25   12:10   0.52   67.9    24   11.2   322    16.4   910.4    0.00 
  25   12:20   0.52   68.7    24   10.4   332    15.5   910.2    0.00 
  25   12:30   0.52   69.0    23   10.8   326    18.1   910.0    0.00 
  25   12:40   0.52   69.5    23   10.1   308    16.1   909.7    0.00 
  25   12:50   0.51   69.9    22    9.1   311    15.8   909.5    0.00 
  25   13:00   0.50   70.6    22    8.8   313    14.0   909.2    0.00 
  25   13:10   0.49   71.2    21    8.7   309    13.0   909.0    0.00 
  25   13:20   0.48   71.6    21    7.2   313    11.9   908.8    0.00 
  25   13:30   0.47   71.9    20    6.1   319    10.0   908.7    0.00 
  25   13:40   0.45   72.5    20    5.2     4    11.2   908.6    0.00 
  25   13:50   0.44   72.8    20    4.6   358    13.4   908.5    0.00 
  25   14:00   0.42   73.5    18    5.5    20     9.1   908.2    0.00 
  25   14:10   0.40   73.8    18    7.4    38    16.2   908.1    0.00 
  25   14:20   0.38   74.0    18    9.2    18    18.8   907.9    0.00 
  25   14:30   0.36   73.9    18    8.9    28    14.5   907.9    0.00 
  25   14:40   0.33   74.0    18    7.8    13    14.0   907.9    0.00 
  25   14:50   0.32   73.8    19    6.7   346    11.8   907.8    0.00 
  25   15:00   0.29   73.9    19    7.2   336    12.4   907.8    0.00 
  25   15:10   0.27   73.4    19    5.7   353    11.0   907.7    0.00 
  25   15:20   0.24   73.7    18    7.1   333    11.5   907.6    0.00 
  25   15:30   0.22   73.2    19    7.4   346    12.2   907.6    0.00 
  25   15:40   0.19   73.2    19    6.0   346     9.3   907.5    0.00 
  25   15:50   0.17   73.6    18    7.1     7    11.9   907.6    0.00 
  25   16:00   0.14   73.7    17    7.0    34    11.8   907.5    0.00 
  25   16:10   0.12   73.4    17    5.1    18     9.5   907.5    0.00 
  25   16:20   0.09   72.9    17    8.5    31    12.3   907.5    0.00 
  25   16:30   0.07   72.1    18    8.0    29    11.7   907.6    0.00 
  25   16:40   0.01   70.6    19    5.7    48     8.3   907.7    0.00 
  25   16:50   0.01   68.7    21    4.5    50     6.6   907.8    0.00 
  25   17:00   0.01   67.3    22    3.9    68     5.4   907.9    0.00 
  25   17:10   0.00   66.5    23    3.1    91     6.3   908.0    0.00 
  25   17:20   0.00   64.5    25    2.7   134     3.9   908.2    0.00 
  25   17:30   0.00   61.7    27    2.2   113     3.9   908.4    0.00 
  25   17:40   0.00   57.1    31    2.6   270     3.6   908.5    0.00 
  25   17:50   0.00   55.3    34    2.9   208     4.3   908.7    0.00 
  25   18:00   0.00   51.9    37    2.3   299     5.3   908.9    0.00 
  25   18:10   0.00   54.1    35    1.5   179     3.9   909.0    0.00 
  25   18:20   0.00   54.0    35    1.6    38     3.9   909.2    0.00 
  25   18:30   0.00   53.4    35    0.6   101     1.6   909.2    0.00 
  25   18:40   0.00   50.4    40    1.1   245     2.0   909.2    0.00 
  25   18:50   0.00   49.9    41    2.6   323     4.5   909.2    0.00 
  25   19:00   0.00   55.3    35    4.9     8     7.7   909.4    0.00 
  25   19:10   0.00   57.1    32    5.8   342     8.5   909.4    0.00 
  25   19:20   0.00   53.5    34    4.5   337     5.5   909.4    0.00 
  25   19:30   0.00   50.4    38    3.7   323     4.9   909.4    0.00 
  25   19:40   0.00   47.9    43    2.8   329     4.2   909.4    0.00 
  25   19:50   0.00   48.6    43    2.8   327     6.7   909.4    0.00 
  25   20:00   0.00   47.0    45    2.1   171     3.7   909.5    0.00 
  25   20:10   0.00   46.1    48    2.3   244     3.7   909.5    0.00 
  25   20:20   0.00   45.3    49    2.5   258     4.5   909.5    0.00 
  25   20:30   0.00   46.1    48    2.3   279     4.2   909.4    0.00 
  25   20:40   0.00   43.8    53    0.7   209     3.4   909.5    0.00 
  25   20:50   0.00   44.7    52    0.4   285     2.3   909.4    0.00 
  25   21:00   0.00   43.1    53    2.7   292     4.2   909.4    0.00 
  25   21:10   0.00   41.3    56    3.1   313     5.7   909.5    0.00 
  25   21:20   0.00   51.4    43    8.3   343    14.2   909.3    0.00 
  25   21:30   0.00   54.0    36    5.9   341     9.0   909.4    0.00 
  25   21:40   0.00   50.7    41    6.3   348     8.5   909.6    0.00 
  25   21:50   0.00   53.0    38    6.7   347    12.0   909.6    0.00 
  25   22:00   0.00   56.0    34    9.7   354    14.4   909.6    0.00 
  25   22:10   0.00   56.3    33    7.6   350    12.7   909.8    0.00 
  25   22:20   0.00   53.9    36    6.8   346    10.7   909.9    0.00 
  25   22:30   0.00   52.9    38    7.4   347    14.2   910.0    0.00 
  25   22:40   0.00   51.2    41    5.0     3     7.6   910.2    0.00 
  25   22:50   0.00   50.5    42    5.4   360     8.6   910.2    0.00 
  25   23:00   0.00   51.0    42    6.9   352    10.4   910.2    0.00 
  25   23:10   0.00   52.5    40    7.7   358    11.2   910.2    0.00 
  25   23:20   0.00   53.5    38    5.7   359    10.2   910.2    0.00 
  25   23:30   0.00   52.2    40    4.7   346     8.6   910.2    0.00 
  25   23:40   0.00   51.2    42    5.7   356    11.0   910.2    0.00 
  25   23:50   0.00   53.1    39    5.7   354    10.1   910.2    0.00 
  26    0:00   0.00   50.8    43    6.4     0    13.6   910.1    0.00 
  26    0:10   0.00   54.3    38    7.9     6    13.3   909.9    0.00 
  26    0:20   0.00   53.1    38    4.7     4     6.9   909.9    0.00 
  26    0:30   0.00   52.5    40    5.7     3    11.3   909.8    0.00 
  26    0:40   0.00   52.4    39    3.5   333     7.0   909.8    0.00 
  26    0:50   0.00   46.5    49    1.1   228     2.3   909.8    0.00 
  26    1:00   0.00   47.0    50    3.6    16     8.8   909.7    0.00 
  26    1:10   0.00   51.3    42    3.8   337     8.4   909.7    0.00 
  26    1:20   0.00   44.6    53    2.4   232     4.1   909.8    0.00 
  26    1:30   0.00   43.3    56    2.6   269     4.2   909.8    0.00 
  26    1:40   0.00   42.7    57    2.0   297     3.9   909.8    0.00 
  26    1:50   0.00   43.4    57    1.2    84     3.7   909.9    0.00 
  26    2:00   0.00   42.9    57    2.3   247     4.7   909.9    0.00 
  26    2:10   0.00   40.8    63    0.2    29     1.6   909.9    0.00 
  26    2:20   0.00   42.0    59    2.1    28     3.2   909.7    0.00 
  26    2:30   0.00   37.5    64    1.7   247     4.1   909.6    0.00 
  26    2:40   0.00   36.0    73    2.2    89     3.3   909.5    0.00 
  26    2:50   0.00   39.5    64    0.1   230     0.9   909.4    0.00 
  26    3:00   0.00   37.8    66    0.9   304     2.6   909.3    0.00 
  26    3:10   0.00   35.0    68    1.0   281     4.1   909.4    0.00 
  26    3:20   0.00   33.9    76    2.3    54     4.5   909.4    0.00 
  26    3:30   0.00   34.9    69    2.2   318     4.4   909.4    0.00 
  26    3:40   0.00   29.2    77    2.6   326     4.6   909.1    0.00 
  26    3:50   0.00   31.0    83    2.0   260     5.1   909.1    0.00 
  26    4:00   0.00   32.6    78    1.5   186     2.6   909.2    0.00 
  26    4:10   0.00   35.5    75    2.4   336     3.8   909.2    0.00 
  26    4:20   0.00   36.6    70    0.7   347     2.3   909.1    0.00 
  26    4:30   0.00   37.7    69    2.8   283     6.3   909.0    0.00 
  26    4:40   0.00   37.3    71    1.5   262     5.3   909.0    0.00 

Return to Pahranagat N. Wildlife Refuge graphs page.


Western Regional Climate Center,wrcc@dri.edu